Time;durP1;ratioP1;P1;durP2;ratioP2;P2;SDS_P1;SDS_P2;PMS_P1;PMS_P2;Temp;Humidity;BMP_temperature;BMP_pressure;BME280_temperature;BME280_humidity;BME280_pressure;Samples;Min_cycle;Max_cycle;Signal;HPM_P1;HPM_P2
2022/06/15 00:01:32;;;;;;;;;;;;;;;-144.99;87.22;52313.56;5107322;28;20346;-75
2022/06/15 00:04:03;;;;;;;;;;;;;;;-144.99;87.25;52301.34;5110480;28;19968;-77
2022/06/15 00:06:31;;;;;;;;;;;;;;;-144.99;87.51;52305.41;5121611;27;20026;-77
2022/06/15 00:08:58;;;;;;;;;;;;;;;-144.99;87.68;52321.72;5110204;28;20014;-76
2022/06/15 00:11:26;;;;;;;;;;;;;;;-144.99;87.97;52329.88;5108661;28;20310;-77
2022/06/15 00:13:54;;;;;;;;;;;;;;;-144.99;88.32;52301.34;5098579;27;19920;-78
2022/06/15 00:16:21;;;;;;;;;;;;;;;-144.99;88.27;52321.72;5128968;27;20101;-76
2022/06/15 00:18:48;;;;;;;;;;;;;;;-144.99;88.00;52305.41;5108836;27;19923;-76
2022/06/15 00:21:16;;;;;;;;;;;;;;;-144.99;87.93;52325.81;5103241;28;19928;-76
2022/06/15 00:23:50;;;;;;;;;;;;;;;-144.99;88.07;52338.03;5107323;28;19926;-77
2022/06/15 00:26:16;;;;;;;;;;;;;;;-144.99;88.29;52303.38;5101781;27;19950;-77
2022/06/15 00:28:43;;;;;;;;;;;;;;;-144.99;88.83;52260.56;5117284;27;20017;-77
2022/06/15 00:31:09;;;;;;;;;;;;;;;-144.99;88.98;52321.72;5109070;27;19926;-76
2022/06/15 00:33:36;;;;;;;;;;;;;;;-144.99;88.95;52305.41;5096136;28;19934;-77
2022/06/15 00:36:04;;;;;;;;;;;;;;;-144.99;88.62;52354.34;5099341;28;19920;-77
2022/06/15 00:38:33;;;;;;;;;;;;;;;-144.99;88.86;52346.19;5112625;27;19983;-77
2022/06/15 00:41:00;;;;;;;;;;;;;;;-144.99;89.24;52321.72;5121756;27;19955;-76
2022/06/15 00:43:35;;;;;;;;;;;;;;;-144.99;89.50;52329.88;5116980;27;19966;-79
2022/06/15 00:46:02;;;;;;;;;;;;;;;-144.99;89.39;52329.88;5113037;27;19965;-79
2022/06/15 00:48:28;;;;;;;;;;;;;;;-144.99;89.44;52321.72;5114624;28;19945;-79
2022/06/15 00:50:55;;;;;;;;;;;;;;;-144.99;89.86;52313.56;5104811;27;20022;-76
2022/06/15 00:53:21;;;;;;;;;;;;;;;-144.99;89.74;52297.25;5105431;28;19927;-77
2022/06/15 00:55:50;;;;;;;;;;;;;;;-144.99;89.84;52319.69;5106711;28;20353;-78
2022/06/15 00:58:17;;;;;;;;;;;;;;;-144.99;90.31;52321.72;5120568;27;20131;-78
2022/06/15 01:00:43;;;;;;;;;;;;;;;-144.99;90.76;52301.34;5111381;27;19927;-78
2022/06/15 01:03:10;;;;;;;;;;;;;;;-144.99;91.28;52305.41;5116016;27;19920;-75
2022/06/15 01:05:42;;;;;;;;;;;;;;;-144.99;91.74;52299.31;5109217;27;20338;-76
2022/06/15 01:08:26;;;;;;;;;;;;;;;-144.99;92.12;52311.53;5106899;27;19970;-77
2022/06/15 01:11:00;;;;;;;;;;;;;;;-144.99;92.33;52313.56;5106601;28;20034;-79
2022/06/15 01:13:38;;;;;;;;;;;;;;;-144.99;92.77;52309.50;5110898;27;19924;-78
2022/06/15 01:16:09;;;;;;;;;;;;;;;-144.99;92.90;52325.81;5105969;27;19934;-76
2022/06/15 01:18:41;;;;;;;;;;;;;;;-144.99;92.94;52329.88;5100370;28;20279;-75
2022/06/15 01:21:12;;;;;;;;;;;;;;;-144.99;93.17;52346.19;5099520;28;19920;-76
2022/06/15 01:23:53;;;;;;;;;;;;;;;-144.99;93.09;52291.16;5103657;28;19955;-76
2022/06/15 01:26:47;;;;;;;;;;;;;;;-144.99;93.43;52309.50;5100153;28;19941;-77
2022/06/15 01:29:22;;;;;;;;;;;;;;;-144.99;93.55;52331.91;5102414;27;20034;-77
2022/06/15 01:31:54;;;;;;;;;;;;;;;-144.99;94.67;52329.88;5106169;27;20027;-78
2022/06/15 01:34:23;;;;;;;;;;;;;;;-144.99;95.14;52289.13;5097788;28;20135;-78
2022/06/15 01:36:55;;;;;;;;;;;;;;;-144.99;95.54;52293.19;5105214;28;19963;-78
2022/06/15 01:39:24;;;;;;;;;;;;;;;-144.99;95.82;52293.19;5106007;27;19949;-78
2022/06/15 01:41:53;;;;;;;;;;;;;;;-144.99;95.99;52350.25;5111155;27;19923;-77
2022/06/15 01:44:22;;;;;;;;;;;;;;;-144.99;96.44;52313.56;5110576;28;20018;-78
2022/06/15 01:46:50;;;;;;;;;;;;;;;-144.99;96.86;52293.19;5101677;28;20019;-78
2022/06/15 01:49:20;;;;;;;;;;;;;;;-144.99;97.23;52295.22;5104793;28;20022;-79
2022/06/15 01:51:46;;;;;;;;;;;;;;;-144.99;97.34;52297.25;5131796;27;19912;-79
2022/06/15 01:54:16;;;;;;;;;;;;;;;-144.99;97.82;52295.22;5126478;27;20026;-78
2022/06/15 01:56:44;;;;;;;;;;;;;;;-144.99;97.81;52311.53;5107835;28;20004;-76
2022/06/15 01:59:15;;;;;;;;;;;;;;;-144.99;98.02;52329.88;5107038;28;20022;-79
2022/06/15 02:01:46;;;;;;;;;;;;;;;-144.99;98.73;52301.34;5116929;28;19986;-79
2022/06/15 02:04:19;;;;;;;;;;;;;;;-144.99;98.79;52338.03;5113279;28;20395;-79
2022/06/15 02:06:51;;;;;;;;;;;;;;;-144.99;98.68;52309.50;5105252;28;19966;-77
2022/06/15 02:09:22;;;;;;;;;;;;;;;-144.99;98.66;52287.06;5112714;28;19936;-79
2022/06/15 02:11:49;;;;;;;;;;;;;;;-144.99;98.32;52311.53;5101788;28;20010;-74
2022/06/15 02:14:18;;;;;;;;;;;;;;;-144.99;98.19;52313.56;5112958;28;19924;-75
2022/06/15 02:16:47;;;;;;;;;;;;;;;-144.99;98.38;52321.72;5098223;28;19988;-75
2022/06/15 02:19:17;;;;;;;;;;;;;;;-144.99;98.49;52319.69;5104658;28;19923;-77
2022/06/15 02:21:45;;;;;;;;;;;;;;;-144.99;98.65;52307.47;5104032;28;19930;-78
2022/06/15 02:24:15;;;;;;;;;;;;;;;-144.99;98.68;52346.19;5106886;28;20381;-77
2022/06/15 02:26:42;;;;;;;;;;;;;;;-144.99;99.33;52325.81;5105747;28;19927;-78
2022/06/15 02:29:13;;;;;;;;;;;;;;;-144.99;100.00;52342.09;5110817;27;20374;-77
2022/06/15 02:31:39;;;;;;;;;;;;;;;-144.99;100.00;52333.94;5114896;27;20042;-75
2022/06/15 02:34:07;;;;;;;;;;;;;;;-144.99;100.00;52333.94;5102033;27;19927;-73
2022/06/15 02:36:35;;;;;;;;;;;;;;;-144.99;100.00;52325.81;5108631;27;20244;-74
2022/06/15 02:39:02;;;;;;;;;;;;;;;-144.99;100.00;52346.19;5110609;27;19923;-76
2022/06/15 02:41:28;;;;;;;;;;;;;;;-144.99;100.00;52342.09;5108134;27;19970;-74
2022/06/15 02:43:56;;;;;;;;;;;;;;;-144.99;100.00;52289.13;5114024;27;20035;-78
2022/06/15 02:46:24;;;;;;;;;;;;;;;-144.99;100.00;52299.31;5108817;28;20359;-76
2022/06/15 02:48:51;;;;;;;;;;;;;;;-144.99;100.00;52333.94;5104832;27;20099;-76
2022/06/15 02:51:19;;;;;;;;;;;;;;;-144.99;100.00;52329.88;5108426;27;20371;-78
2022/06/15 02:53:48;;;;;;;;;;;;;;;-144.99;100.00;52327.84;5104018;28;19928;-76
2022/06/15 02:56:15;;;;;;;;;;;;;;;-144.99;100.00;52325.81;5107706;28;19930;-74
2022/06/15 02:58:43;;;;;;;;;;;;;;;-144.99;100.00;52338.03;5112082;28;19924;-74
2022/06/15 03:01:10;;;;;;;;;;;;;;;-144.99;100.00;52301.34;5110014;28;19966;-74
2022/06/15 03:03:37;;;;;;;;;;;;;;;-144.99;100.00;52325.81;5114929;27;19971;-72
2022/06/15 03:06:08;;;;;;;;;;;;;;;-144.99;100.00;52374.72;5111263;28;19924;-75
2022/06/15 03:08:34;;;;;;;;;;;;;;;-144.99;100.00;52338.03;5111932;28;20018;-76
2022/06/15 03:11:02;;;;;;;;;;;;;;;-144.99;100.00;52317.66;5121904;27;20037;-76
2022/06/15 03:13:28;;;;;;;;;;;;;;;-144.99;100.00;52338.03;5109655;28;20032;-74
2022/06/15 03:15:57;;;;;;;;;;;;;;;-144.99;100.00;52317.66;5109273;28;20023;-76
2022/06/15 03:18:23;;;;;;;;;;;;;;;-144.99;100.00;52370.63;5108942;27;20027;-76
2022/06/15 03:20:50;;;;;;;;;;;;;;;-144.99;100.00;52344.16;5107974;28;20015;-73
2022/06/15 03:23:16;;;;;;;;;;;;;;;-144.99;100.00;52293.19;5109545;28;20382;-76
2022/06/15 03:25:43;;;;;;;;;;;;;;;-144.99;100.00;52289.13;5097061;28;20015;-75
2022/06/15 03:28:11;;;;;;;;;;;;;;;-144.99;100.00;52323.75;5113317;27;20343;-76
2022/06/15 03:30:38;;;;;;;;;;;;;;;-144.99;100.00;52297.25;5116996;27;20425;-75
2022/06/15 03:33:05;;;;;;;;;;;;;;;-144.99;99.74;52313.56;5119205;27;19924;-76
2022/06/15 03:35:35;;;;;;;;;;;;;;;-144.99;99.62;52301.34;5104575;27;20410;-76
2022/06/15 03:38:01;;;;;;;;;;;;;;;-144.99;99.56;52317.66;5113001;27;19924;-76
2022/06/15 03:40:28;;;;;;;;;;;;;;;-144.99;99.53;52309.50;5110433;22;19924;-73
2022/06/15 03:42:54;;;;;;;;;;;;;;;-144.99;99.10;52317.66;5082760;28;20442;-73
2022/06/15 03:45:22;;;;;;;;;;;;;;;-144.99;98.81;52338.03;5084192;28;19932;-74
2022/06/15 03:47:49;;;;;;;;;;;;;;;-144.99;98.70;52289.13;5085201;28;19935;-75
2022/06/15 03:50:15;;;;;;;;;;;;;;;-144.99;98.44;52276.88;5080151;28;19957;-75
2022/06/15 03:52:42;;;;;;;;;;;;;;;-144.99;98.51;52301.34;5077344;28;19955;-75
2022/06/15 03:55:08;;;;;;;;;;;;;;;-144.99;98.07;52301.34;5082800;28;20486;-72
2022/06/15 03:57:35;;;;;;;;;;;;;;;-144.99;97.74;52309.50;5089080;28;19924;-72
2022/06/15 04:00:01;;;;;;;;;;;;;;;-144.99;97.55;52331.91;5083123;28;19928;-72
2022/06/15 04:02:29;;;;;;;;;;;;;;;-144.99;97.63;52280.97;5085374;28;19970;-72
2022/06/15 04:04:55;;;;;;;;;;;;;;;-144.99;97.51;52297.25;5087585;28;19932;-72
2022/06/15 04:10:06;;;;;;;;;;;;;;;-144.99;97.67;52325.81;5083983;28;20362;-72
2022/06/15 04:12:32;;;;;;;;;;;;;;;-144.99;97.53;52301.34;5080459;28;19938;-71
2022/06/15 04:14:59;;;;;;;;;;;;;;;-144.99;97.45;52309.50;5077549;28;20011;-75
2022/06/15 04:17:25;;;;;;;;;;;;;;;-144.99;97.45;52280.97;5082680;28;19924;-73
2022/06/15 04:22:34;;;;;;;;;;;;;;;-144.99;97.55;52303.38;5076682;28;19928;-73
2022/06/15 04:25:00;;;;;;;;;;;;;;;-144.99;97.46;52305.41;5083396;28;19931;-72
2022/06/15 04:27:26;;;;;;;;;;;;;;;-144.99;97.34;52285.03;5083401;28;20379;-72
2022/06/15 04:29:53;;;;;;;;;;;;;;;-144.99;97.27;52309.50;5079836;28;19931;-71
2022/06/15 04:32:19;;;;;;;;;;;;;;;-144.99;96.87;52244.28;5081061;28;20400;-72
2022/06/15 04:34:46;;;;;;;;;;;;;;;-144.99;96.36;52285.03;5077052;28;19931;-72
2022/06/15 04:37:13;;;;;;;;;;;;;;;-144.99;94.99;52276.88;5084639;28;19924;-72
2022/06/15 04:39:40;;;;;;;;;;;;;;;-144.99;94.68;52305.41;5080900;28;20231;-72
2022/06/15 04:42:06;;;;;;;;;;;;;;;-144.99;94.20;52289.13;5081674;28;20007;-72
2022/06/15 04:44:33;;;;;;;37.67;34.57;;;;;;;-144.99;94.02;52305.41;5084733;28;19963;-72
2022/06/15 04:47:01;;;;;;;;;;;;;;;-144.99;92.74;52268.72;5081296;28;20291;-73
2022/06/15 04:49:27;;;;;;;;;;;;;;;-144.99;92.86;52291.16;5081934;28;19963;-72
2022/06/15 04:51:54;;;;;;;;;;;;;;;-144.99;92.23;52309.50;5081407;28;20014;-72
2022/06/15 04:54:22;;;;;;;;;;;;;;;-144.99;91.16;52285.03;5079493;28;19924;-71
2022/06/15 04:56:48;;;;;;;;;;;;;;;-144.99;90.36;52301.34;5084951;28;20276;-72
2022/06/15 04:59:15;;;;;;;;;;;;;;;-144.99;90.02;52289.13;5082580;28;20014;-72
2022/06/15 05:01:42;;;;;;;;;;;;;;;-144.99;88.77;52307.47;4376251;28;10000736;-71
2022/06/15 05:04:08;;;;;;;;;;;;;;;-144.99;87.56;52285.03;5078183;28;19920;-72
2022/06/15 05:06:35;;;;;;;;;;;;;;;-144.99;86.05;52283.00;5072050;28;19928;-71
2022/06/15 05:09:03;;;;;;;;;;;;;;;-144.99;85.07;52297.25;5078905;28;19955;-72
2022/06/15 05:11:30;;;;;;;;;;;;;;;-144.99;84.38;52297.25;5077875;28;20022;-71
2022/06/15 05:13:57;;;;;;;;;;;;;;;-144.99;83.25;52297.25;5081852;28;20392;-72
2022/06/15 05:16:23;;;;;;;;;;;;;;;-144.99;82.37;52264.66;5076255;28;19924;-71
2022/06/15 05:18:50;;;;;;;;;;;;;;;-144.99;81.33;52248.34;5082220;28;20374;-71
2022/06/15 05:21:16;;;;;;;;;;;;;;;-144.99;80.87;52301.34;5068751;28;20015;-71
2022/06/15 05:23:43;;;;;;;;;;;;;;;-144.99;80.28;52252.44;5068773;28;19924;-71
2022/06/15 05:26:09;;;;;;;;;;;;;;;-144.99;79.71;52256.50;5056135;28;19990;-71
2022/06/15 05:28:38;;;;;;;;;;;;;;;-144.99;78.67;52297.25;5080417;28;20244;-71
2022/06/15 05:31:05;;;;;;;;;;;;;;;-144.99;78.11;52260.56;5080286;28;19966;-72
2022/06/15 05:33:33;;;;;;;;;;;;;;;-144.99;77.23;52260.56;5071989;28;19951;-73
2022/06/15 05:36:02;;;;;;;;;;;;;;;-144.99;75.99;52285.03;5083893;28;19920;-71
2022/06/15 05:38:28;;;;;;;;;;;;;;;-144.99;75.25;52266.69;5082193;28;20350;-72
2022/06/15 05:40:54;;;;;;;;;;;;;;;-144.99;74.09;52276.88;5073877;28;20420;-72
2022/06/15 05:43:21;;;;;;;;;;;;;;;-144.99;73.27;52240.19;5083039;28;19974;-71
2022/06/15 05:45:49;;;;;;;;;;;;;;;-144.99;71.97;52236.13;5074066;28;20152;-72
2022/06/15 05:48:15;;;;;;;;;;;;;;;-144.99;71.37;52244.28;5076931;28;20213;-72
2022/06/15 05:50:42;;;;;;;;;;;;;;;-144.99;70.55;52268.72;5075660;28;19920;-72
2022/06/15 05:53:08;;;;;;;;;;;;;;;-144.99;69.23;52264.66;5082224;28;19931;-72
2022/06/15 05:55:35;;;;;;;;;;;;;;;-144.99;68.50;52215.75;5082868;28;20015;-71
2022/06/15 05:58:01;;;;;;;;;;;;;;;-144.99;67.63;52276.88;5084266;28;20043;-72
2022/06/15 06:00:27;;;;;;;;;;;;;;;-144.99;66.95;52227.97;5083837;28;20143;-72
2022/06/15 06:02:55;;;;;;;;;;;;;;;-144.99;66.11;52248.34;5089993;28;19928;-72
2022/06/15 06:05:22;;;;;;;;;;;;;;;-144.99;65.21;52227.97;5089591;28;20010;-72
2022/06/15 06:07:49;;;;;;;;;;;;;;;-144.99;65.07;52240.19;5087788;28;21286;-71
2022/06/15 06:10:15;;;;;;;;;;;;;;;-144.99;65.06;52260.56;5084895;28;19920;-72
2022/06/15 06:12:41;;;;;;;;;;;;;;;-144.99;64.37;52236.13;5077992;28;19930;-72
2022/06/15 06:15:08;;;;;;;;;;;;;;;-144.99;63.86;52203.50;5085447;28;20716;-73
2022/06/15 06:17:35;;;;;;;;;;;;;;;-144.99;63.19;52252.44;5086475;28;19934;-73
2022/06/15 06:20:03;;;;;;;;;;;;;;;-144.99;63.09;52195.34;5086449;28;20010;-72
2022/06/15 06:22:29;;;;;;;;;;;;;;;-144.99;63.24;52227.97;5070777;28;19924;-72
2022/06/15 06:24:55;;;;;;;;;;;;;;;-144.99;63.10;52252.44;5074387;28;20449;-73
2022/06/15 06:27:22;;;;;;;;;;;;;;;-144.99;62.62;52242.22;5086317;28;19920;-72
2022/06/15 06:29:48;;;;;;;;;;;;;;;-144.99;61.91;52248.34;5086374;28;20369;-72
2022/06/15 06:32:16;;;;;;;;;;;;;;;-144.99;62.04;52203.50;5083391;28;20314;-72
2022/06/15 06:34:43;;;;;;;;;;;;;;;-144.99;61.42;52211.66;5077951;28;20313;-73
2022/06/15 06:37:11;;;;;;;;;;;;;;;-144.99;61.06;52199.44;5088171;28;20349;-73
2022/06/15 06:39:38;;;;;;;;;;;;;;;-144.99;61.13;52219.81;5088046;28;20016;-74
2022/06/15 06:42:05;;;;;;;;;;;;;;;-144.99;61.17;52256.50;5084390;28;20063;-73
2022/06/15 06:44:31;;;;;;;;;;;;;;;-144.99;60.51;52236.13;5087599;28;20414;-73
2022/06/15 06:46:58;;;;;;;;;;;;;;;-144.99;60.03;52240.19;4732478;28;10000246;-73
2022/06/15 06:49:25;;;;;;;;;;;;;;;-144.99;59.58;52215.75;5081044;28;19928;-76
2022/06/15 06:51:52;;;;;;;;;;;;;;;-144.99;59.17;52248.34;5079482;28;24470;-74
2022/06/15 06:54:20;;;;;;;;;;;;;;;-144.99;58.45;52232.03;5078607;28;19928;-73
2022/06/15 06:56:47;;;;;;;;;;;;;;;-144.99;57.55;52227.97;5086523;28;20382;-74
2022/06/15 06:59:14;;;;;;;;;;;;;;;-144.99;56.97;52187.19;5085038;28;20342;-74
2022/06/15 07:01:42;;;;;;;;;;;;;;;-144.99;57.08;52240.19;5079340;28;20310;-72
2022/06/15 07:04:09;;;;;;;;;;;;;;;-144.99;56.08;52177.00;5084063;28;19924;-72
2022/06/15 07:06:36;;;;;;;;;;;;;;;-144.99;56.15;52207.59;5086257;28;20228;-75
2022/06/15 07:09:03;;;;;;;;;;;;;;;-144.99;55.87;52189.25;5086683;28;19924;-73
2022/06/15 07:11:31;;;;;;;;;;;;;;;-144.99;55.71;52227.97;5076400;28;20380;-74
2022/06/15 07:13:58;;;;;;;;;;;;;;;-144.99;55.07;52219.81;5081186;28;24438;-75
2022/06/15 07:16:24;;;;;;;;;;;;;;;-144.99;53.55;52191.28;5087982;28;19971;-75
2022/06/15 07:18:52;;;;;;;;;;;;;;;-144.99;53.44;52211.66;5088941;28;20011;-74
2022/06/15 07:21:19;;;;;;;;;;;;;;;-144.99;53.37;52225.94;5078162;28;19928;-73
2022/06/15 07:23:47;;;;;;;;;;;;;;;-144.99;53.73;52248.34;5071720;28;19971;-74
2022/06/15 07:26:15;;;;;;;;;;;;;;;-144.99;53.53;52191.28;5083585;28;19930;-74
2022/06/15 07:28:43;;;;;;;;;;;;;;;-144.99;53.93;52232.03;5086127;28;20399;-74
2022/06/15 07:31:10;;;;;;;;;;;;;;;-144.99;53.53;52203.50;5082805;28;19924;-75
2022/06/15 07:33:38;;;;;;;;;;;;;;;-144.99;53.69;52183.13;5070677;28;19924;-74
2022/06/15 07:36:05;;;;;;;;;;;;;;;-144.99;53.47;52183.13;5086499;28;19946;-74
2022/06/15 07:38:31;;;;;;;;;;;;;;;-144.99;52.93;52174.97;5085664;28;19924;-74
2022/06/15 07:40:58;;;;;;;;;;;;;;;-144.99;52.12;52193.31;5084470;28;19923;-73
2022/06/15 07:43:25;;;;;;;;;;;;;;;-144.99;51.56;52179.06;5083180;28;19950;-74
2022/06/15 07:45:53;;;;;;;;;;;;;;;-144.99;51.21;52174.97;5083504;28;20732;-74
2022/06/15 07:51:03;;;;;;;;;;;;;;;-144.99;49.93;52179.06;5078723;28;19927;-75
2022/06/15 07:53:30;;;;;;;;;;;;;;;-144.99;49.17;52168.84;5085157;28;20010;-74
2022/06/15 07:55:57;;;;;;;;;;;;;;;-144.99;48.09;52158.66;5084800;28;19924;-71
2022/06/15 07:58:23;;;;;;;;;;;;;;;-144.99;48.00;52201.47;5084433;28;19974;-74
2022/06/15 08:00:53;;;;;;;;;;;;;;;-144.99;48.23;52199.44;5076416;28;20003;-74
2022/06/15 08:03:21;;;;;;;;;;;;;;;-144.99;48.08;52179.06;5088898;28;19969;-74
2022/06/15 08:05:49;;;;;;;;;;;;;;;-144.99;47.73;52162.75;5090060;28;19977;-74
2022/06/15 08:08:17;;;;;;;;;;;;;;;-144.99;47.50;52177.00;5085656;28;20385;-75
2022/06/15 08:10:43;;;;;;;;;;;;;;;-144.99;47.21;52156.63;5077294;28;20563;-74
2022/06/15 08:13:10;;;;;;;;;;;;;;;-144.99;46.64;52146.44;5075555;28;20367;-74
2022/06/15 08:15:37;;;;;;;;;;;;;;;-144.99;46.88;52187.19;5082875;28;20408;-74
2022/06/15 08:18:06;;;;;;;;;;;;;;;-144.99;46.74;52179.06;5083295;28;19970;-75
2022/06/15 08:20:36;;;;;;;;;;;;;;;-144.99;46.00;52187.19;5079951;28;19931;-74
2022/06/15 08:23:05;;;;;;;;;;;;;;;-144.99;46.28;52183.13;5079699;28;19943;-74
2022/06/15 08:25:34;;;;;;;;;;;;;;;-144.99;46.39;52142.38;5075856;28;19923;-74
2022/06/15 08:28:01;;;;;;;;;;;;;;;-144.99;46.60;52170.91;5084828;28;20134;-74
2022/06/15 08:30:27;;;;;;;;;;;;;;;-144.99;45.63;52170.91;5081380;28;20400;-74
2022/06/15 08:32:54;;;;;;;;;;;;;;;-144.99;45.07;52138.28;5076695;28;20053;-74
2022/06/15 08:35:20;;;;;;;;;;;;;;;-144.99;45.32;52187.19;5083439;28;19923;-73
2022/06/15 08:37:48;;;;;;;;;;;;;;;-144.99;45.22;52146.44;5087883;28;19924;-74
2022/06/15 08:40:15;;;;;;;;;;;;;;;-144.99;45.29;52166.81;5088265;28;20766;-74
2022/06/15 08:42:45;;;;;;;;;;;;;;;-144.99;44.99;52179.06;5081398;28;19924;-74
2022/06/15 08:45:17;;;;;;;;;;;;;;;-144.99;44.68;52179.06;5082220;28;20039;-75
2022/06/15 08:47:58;;;;;;;;;;;;;;;-144.99;44.77;52115.88;5082770;28;20376;-75
2022/06/15 08:50:27;;;;;;;;;;;;;;;-144.99;44.88;52154.59;5077500;28;19925;-74
2022/06/15 08:52:57;;;;;;;;;;;;;;;-144.99;44.46;52146.44;5075059;28;20978;-73
2022/06/15 08:55:25;;;;;;;;;;;;;;;-144.99;44.84;52160.72;5078300;28;19924;-74
2022/06/15 08:57:53;;;;;;;;;;;;;;;-144.99;44.75;52166.81;5083595;28;20314;-73
2022/06/15 09:00:25;;;;;;;;;;;;;;;-144.99;44.37;52142.38;5077610;28;19959;-73
2022/06/15 09:02:57;;;;;;;;;;;;;;;-144.99;43.65;52174.97;5077311;28;20003;-73
2022/06/15 09:05:29;;;;;;;;;;;;;;;-144.99;43.18;52121.97;5083602;28;19971;-75
2022/06/15 09:08:10;;;;;;;;;;;;;;;-144.99;43.48;52130.13;5083783;28;19928;-73
2022/06/15 09:10:42;;;;;;;;;;;;;;;-144.99;43.11;52179.06;5080690;28;19928;-74
2022/06/15 09:13:17;;;;;;;;;;;;;;;-144.99;43.59;52126.06;5075000;28;20646;-73
2022/06/15 09:15:50;;;;;;;;;;;;;;;-144.99;43.29;52168.84;5083040;28;19924;-74
2022/06/15 09:18:19;;;;;;;;;;;;;;;-144.99;43.26;52162.75;5083974;28;20011;-73
2022/06/15 09:20:47;;;;;;;;;;;;;;;-144.99;43.32;52207.59;5080804;28;19931;-75
2022/06/15 09:23:18;;;;;;;;;;;;;;;-144.99;43.66;52109.75;5075362;28;19925;-74
2022/06/15 09:25:46;;;;;;;;;;;;;;;-144.99;44.32;52111.78;5075302;28;19959;-75
2022/06/15 09:28:18;;;;;;;;;;;;;;;-144.99;43.90;52099.56;5082302;28;20224;-74
2022/06/15 09:30:45;;;;;;;;;;;;;;;-144.99;42.54;52101.59;5082225;28;19989;-74
2022/06/15 09:33:13;;;;;;;;;;;;;;;-144.99;39.95;52117.91;5080535;28;19985;-75
2022/06/15 09:35:43;;;;;;;;;;;;;;;-144.99;39.85;52109.75;5080814;28;19934;-75
2022/06/15 09:38:13;;;;;;;;;;;;;;;-144.99;39.61;52097.53;5080903;28;19920;-73
2022/06/15 09:40:44;;;;;;;;;;;;;;;-144.99;38.99;52085.31;5106725;22;19959;-75
2022/06/15 09:43:13;;;;;;;;;;;;;;;-144.99;38.52;52093.44;5081453;28;19927;-72
2022/06/15 09:45:43;;;;;;;;;;;;;;;-144.99;37.97;52105.69;5084235;28;19960;-73
2022/06/15 09:48:15;;;;;;;;;;;;;;;-144.99;37.43;52138.28;5083884;28;20019;-76
2022/06/15 09:50:46;;;;;;;;;;;;;;;-144.99;38.00;52093.44;5086700;28;19923;-76
2022/06/15 09:53:22;;;;;;;;;;;;;;;-144.99;38.72;52115.88;5076847;28;19921;-74
2022/06/15 09:55:53;;;;;;;;;;;;;;;-144.99;38.73;52107.72;5080366;28;20018;-74
2022/06/15 09:58:21;;;;;;;;;;;;;;;-144.99;38.57;52130.13;5084081;28;19924;-74
2022/06/15 10:00:49;;;;;;;;;;;;;;;-144.99;39.06;52121.97;5090199;28;19928;-73
2022/06/15 10:03:20;;;;;;;;;;;;;;;-144.99;39.13;52121.97;5099703;28;19931;-76
2022/06/15 10:05:48;;;;;;;;;;;;;;;-144.99;38.30;52060.84;5086525;28;20216;-72
2022/06/15 10:08:15;;;;;;;;;;;;;;;-144.99;37.71;52095.50;5085893;28;19931;-76
2022/06/15 10:10:44;;;;;;;;;;;;;;;-144.99;37.71;52032.31;5095132;28;19931;-73
2022/06/15 10:13:26;;;;;;;;;;;;;;;-144.99;37.18;52048.63;5085225;28;19924;-75
2022/06/15 10:15:55;;;;;;;;;;;;;;;-144.99;37.00;52091.41;5087540;28;19924;-75
2022/06/15 10:18:27;;;;;;;;;;;;;;;-144.99;36.69;52052.69;5085419;28;19955;-72
2022/06/15 10:21:00;;;;;;;;;;;;;;;-144.99;36.26;52048.63;5083204;28;19928;-73
2022/06/15 10:23:32;;;;;;;;;;;;;;;-144.99;36.18;52040.47;5067733;28;19959;-74
2022/06/15 10:25:59;;;;;;;;;;;;;;;-144.99;36.08;52040.47;5105767;28;19935;-75
2022/06/15 10:28:31;;;;;;;;;;;;;;;-144.99;35.77;52040.47;5123322;28;19932;-73
2022/06/15 10:31:01;;;;;;;;;;;;;;;-144.99;36.26;52095.50;5098996;28;19969;-74
2022/06/15 10:33:35;;;;;;;;;;;;;;;-144.99;37.17;52101.59;5069391;28;19931;-76
2022/06/15 10:36:02;;;;;;;;;;;;;;;-144.99;37.58;52060.84;5081727;28;19924;-73
2022/06/15 10:38:29;;;;;;;;;;;;;;;-144.99;37.79;52052.69;5084444;28;20033;-75
2022/06/15 10:40:58;;;;;;;;;;;;;;;-144.99;37.23;52040.47;5082222;28;20558;-75
2022/06/15 10:43:28;;;;;;;;;;;;;;;-144.99;36.82;52040.47;5082993;28;19924;-76
2022/06/15 10:45:57;;;;;;;;;;;;;;;-144.99;36.52;52036.38;5085113;28;20025;-74
2022/06/15 10:48:28;;;;;;;;;;;;;;;-144.99;35.40;52028.22;5085197;28;24456;-76
2022/06/15 10:51:01;;;;;;;46.50;42.75;;;;;;;-144.99;35.33;52032.31;5078826;28;20768;-75
2022/06/15 10:53:32;;;;;;;;;;;;;;;-144.99;36.14;52028.22;5070651;28;20737;-75
2022/06/15 11:04:24;;;;;;;;;;;;;;;-144.99;35.00;51983.41;5099967;28;20181;-74
2022/06/15 11:06:52;;;;;;;;;;;;;;;-144.99;34.81;51950.78;5086486;28;19928;-75
2022/06/15 11:09:21;;;;;;;;;;;;;;;-144.99;34.49;51942.63;5082978;28;19939;-74
2022/06/15 11:11:49;;;;;;;;;;;;;;;-144.99;34.50;51958.94;5077602;28;20793;-77
2022/06/15 11:14:19;;;;;;;;;;;;;;;-144.99;33.07;51936.53;5085148;28;20276;-74
2022/06/15 11:19:32;;;;;;;;;;;;;;;-144.99;33.92;51983.41;5093336;28;19927;-73
2022/06/15 11:22:02;;;;;;;;;;;;;;;-144.99;33.69;52009.91;5080446;28;19920;-76
2022/06/15 11:24:35;;;;;;;;;;;;;;;-144.99;34.45;52058.81;5082392;28;19946;-75
2022/06/15 11:27:04;;;;;;;;;;;;;;;-144.99;35.20;51975.25;5083266;28;20284;-73
2022/06/15 11:29:36;;;;;;;;;;;;;;;-144.99;34.46;52073.06;5084506;28;19924;-74
2022/06/15 11:32:07;;;;;;;;;;;;;;;-144.99;34.94;51995.63;5081457;28;19924;-75
2022/06/15 11:34:37;;;;;;;;;;;;;;;-144.99;35.13;52066.97;5085760;28;19923;-74
2022/06/15 11:37:06;;;;;;;;;;;;;;;-144.99;35.10;52079.19;5085321;28;19924;-74
2022/06/15 11:39:34;;;;;;;;;;;;;;;-144.99;34.85;52121.97;5085528;28;20057;-74
2022/06/15 11:42:01;;;;;;;;;;;;;;;-144.99;35.34;52060.84;5096266;28;19950;-74
2022/06/15 11:44:29;;;;;;;;;;;;;;;-144.99;35.34;52048.63;5078896;28;19924;-74
2022/06/15 11:47:07;;;;;;;;;;;;;;;-144.99;35.67;52089.38;5081788;28;19928;-74
2022/06/15 11:49:39;;;;;;;;;;;;;;;-144.99;35.49;52073.06;5081751;28;20026;-75
2022/06/15 11:52:17;;;;;;;;;;;;;;;-144.99;35.82;52052.69;5072799;28;19924;-77
2022/06/15 11:54:56;;;;;;;;;;;;;;;-144.99;35.42;52071.03;5088218;28;19993;-72
2022/06/15 11:57:28;;;;;;;;;;;;;;;-144.99;35.02;52069.00;5101882;28;19920;-76
2022/06/15 12:00:01;;;;;;;;;;;;;;;-144.99;35.10;52048.63;5080726;28;19924;-75
2022/06/15 12:02:36;;;;;;;;;;;;;;;-144.99;35.05;52079.19;5074585;28;19981;-74
2022/06/15 12:05:23;;;;;;;;;;;;;;;-144.99;34.94;52048.63;5084667;28;19923;-74
2022/06/15 12:07:56;;;;;;;;;;;;;;;-144.99;34.90;52052.69;5075925;28;19927;-73
2022/06/15 12:10:29;;;;;;;;;;;;;;;-144.99;35.11;52081.22;5089601;28;19928;-73
2022/06/15 12:12:58;;;;;;;;;;;;;;;-144.99;35.12;52101.59;5084240;28;19923;-75
2022/06/15 12:15:33;;;;;;;;;;;;;;;-144.99;34.95;52036.38;5083107;28;19928;-74
2022/06/15 12:18:06;;;;;;;;;;;;;;;-144.99;34.76;52056.78;5103149;28;20063;-75
2022/06/15 12:20:41;;;;;;;;;;;;;;;-144.99;34.69;52016.00;5080493;28;19920;-74
2022/06/15 12:23:23;;;;;;;;;;;;;;;-144.99;34.12;52052.69;5087094;28;20018;-75
2022/06/15 12:25:55;;;;;;;;;;;;;;;-144.99;34.65;51985.44;5083538;28;19966;-73
2022/06/15 12:28:26;;;;;;;;;;;;;;;-144.99;34.20;51995.63;5104141;28;19927;-73
2022/06/15 12:30:56;;;;;;;;;;;;;;;-144.99;34.14;52024.16;5085555;28;20437;-72
2022/06/15 12:33:31;;;;;;;;;;;;;;;-144.99;33.79;52020.09;5076366;28;20455;-73
2022/06/15 12:36:02;;;;;;;;;;;;;;;-144.99;33.82;52016.00;5084064;28;24503;-74
2022/06/15 12:38:35;;;;;;;;;;;;;;;-144.99;34.17;52044.53;5083551;28;19947;-72
2022/06/15 12:41:06;;;;;;;;;;;;;;;-144.99;33.84;52073.06;5082172;28;19981;-73
2022/06/15 12:43:35;;;;;;;;;;;;;;;-144.99;34.12;52020.09;5075999;28;24908;-73
2022/06/15 12:46:06;;;;;;;;;;;;;;;-144.99;34.29;52056.78;5082169;28;20032;-74
2022/06/15 12:48:37;;;;;;;;;;;;;;;-144.99;34.15;52024.16;5076399;28;20341;-74
2022/06/15 12:51:07;;;;;;;;;;;;;;;-144.99;33.70;52003.78;5080739;28;19924;-74
2022/06/15 12:53:41;;;;;;;;;;;;;;;-144.99;33.67;52001.75;5074069;28;20028;-73